createdAt,value
2018-10-16T00:01:01.023Z,9.16
2018-10-16T00:04:06.255Z,9.16
2018-10-16T00:07:11.197Z,9.12
2018-10-16T00:10:22.054Z,9.15
2018-10-16T00:13:26.984Z,9.12
2018-10-16T00:16:31.909Z,9.04
2018-10-16T00:19:36.885Z,9.05
2018-10-16T00:22:41.817Z,9.04
2018-10-16T00:25:46.801Z,9.02
2018-10-16T00:28:51.748Z,9.02
2018-10-16T00:31:56.667Z,8.98
2018-10-16T00:35:01.618Z,8.98
2018-10-16T00:38:06.589Z,9.02
2018-10-16T00:41:11.529Z,9.01
2018-10-16T00:44:16.457Z,8.95
2018-10-16T00:47:21.420Z,8.89
2018-10-16T00:50:26.373Z,8.87
2018-10-16T00:53:31.294Z,8.86
2018-10-16T00:56:36.595Z,8.80
2018-10-16T00:59:41.553Z,8.81
2018-10-16T01:02:46.495Z,8.77
2018-10-16T01:09:50.584Z,8.69
2018-10-16T01:12:55.521Z,8.67
2018-10-16T01:16:00.471Z,8.64
2018-10-16T01:19:05.606Z,8.65
2018-10-16T01:22:10.550Z,8.56
2018-10-16T01:25:15.505Z,8.54
2018-10-16T01:28:20.468Z,8.58
2018-10-16T01:31:25.830Z,8.60
2018-10-16T01:34:30.758Z,8.48
2018-10-16T01:37:35.708Z,8.50
2018-10-16T01:40:40.633Z,8.36
2018-10-16T01:43:45.577Z,8.44
2018-10-16T01:46:50.595Z,8.47
2018-10-16T01:49:55.534Z,8.50
2018-10-16T01:53:00.456Z,8.43
2018-10-16T01:56:05.382Z,8.38
2018-10-16T01:59:10.338Z,8.43
2018-10-16T02:02:15.287Z,8.44
2018-10-16T02:05:20.222Z,8.34
2018-10-16T02:08:25.145Z,8.33
2018-10-16T02:11:30.085Z,8.30
2018-10-16T02:14:35.040Z,8.25
2018-10-16T02:17:40.202Z,8.25
2018-10-16T02:20:45.149Z,8.28
2018-10-16T02:23:50.111Z,8.22
2018-10-16T02:26:55.033Z,8.26
2018-10-16T02:29:59.978Z,8.26
2018-10-16T02:33:05.177Z,8.28
2018-10-16T02:36:10.121Z,8.27
2018-10-16T02:39:15.047Z,8.23
2018-10-16T02:42:20.087Z,8.21
2018-10-16T02:45:38.226Z,8.23
2018-10-16T02:48:43.174Z,8.19
2018-10-16T02:51:48.105Z,8.20
2018-10-16T02:54:53.041Z,8.22
2018-10-16T02:57:57.983Z,8.18
2018-10-16T03:01:02.949Z,8.17
2018-10-16T03:04:07.931Z,8.15
2018-10-16T03:07:12.885Z,8.18
2018-10-16T03:10:17.837Z,8.17
2018-10-16T03:13:22.782Z,8.14
2018-10-16T03:16:27.713Z,8.10
2018-10-16T03:19:32.650Z,8.11
2018-10-16T03:22:38.056Z,8.05
2018-10-16T03:25:42.985Z,7.98
2018-10-16T03:28:47.930Z,8.05
2018-10-16T03:31:52.867Z,8.07
2018-10-16T03:34:57.789Z,8.02
2018-10-16T03:38:02.751Z,8.01
2018-10-16T03:41:07.689Z,8.02
2018-10-16T03:44:13.408Z,8.02
2018-10-16T03:47:18.359Z,7.99
2018-10-16T03:50:23.278Z,8.02
2018-10-16T03:53:28.210Z,8.00
2018-10-16T03:56:33.161Z,7.97
2018-10-16T03:59:38.073Z,7.94
2018-10-16T04:02:43.014Z,7.94
2018-10-16T04:05:47.953Z,7.93
2018-10-16T04:08:52.981Z,7.91
2018-10-16T04:11:57.926Z,7.90
2018-10-16T04:15:02.885Z,7.87
2018-10-16T04:18:07.824Z,7.84
2018-10-16T04:21:12.786Z,7.83
2018-10-16T04:24:17.753Z,7.85
2018-10-16T04:27:22.732Z,7.85
2018-10-16T04:30:27.641Z,7.82
2018-10-16T04:33:32.562Z,7.80
2018-10-16T04:36:37.485Z,7.79
2018-10-16T04:39:42.406Z,7.81
2018-10-16T04:42:47.334Z,7.77
2018-10-16T04:45:52.298Z,7.74
2018-10-16T04:48:57.236Z,7.74
2018-10-16T04:52:02.165Z,7.76
2018-10-16T04:55:07.331Z,7.74
2018-10-16T04:58:12.258Z,7.69
2018-10-16T05:01:17.194Z,7.70
2018-10-16T05:04:22.134Z,7.70
2018-10-16T05:07:27.089Z,7.68
2018-10-16T05:10:32.018Z,7.67
2018-10-16T05:14:57.865Z,7.55
2018-10-16T05:18:02.821Z,7.55
2018-10-16T05:21:07.824Z,7.57
2018-10-16T05:24:12.761Z,7.62
2018-10-16T05:27:17.723Z,7.60
2018-10-16T05:30:22.718Z,7.58
2018-10-16T05:33:27.787Z,7.59
2018-10-16T05:36:32.757Z,7.61
2018-10-16T05:39:37.709Z,7.63
2018-10-16T05:42:42.689Z,7.65
2018-10-16T05:45:47.727Z,7.65
2018-10-16T05:48:52.843Z,7.68
2018-10-16T05:51:57.784Z,7.66
2018-10-16T05:55:03.038Z,7.68
2018-10-16T05:58:08.140Z,7.71
2018-10-16T06:01:20.513Z,7.68
2018-10-16T06:04:25.493Z,7.67
2018-10-16T06:07:30.429Z,7.70
2018-10-16T06:10:35.690Z,7.69
2018-10-16T06:13:40.626Z,7.71
2018-10-16T06:16:45.590Z,7.71
2018-10-16T06:19:50.546Z,7.74
2018-10-16T06:22:55.492Z,7.72
2018-10-16T06:26:00.481Z,7.80
2018-10-16T06:29:05.630Z,7.82
2018-10-16T06:32:10.608Z,7.89
2018-10-16T06:35:15.577Z,7.93
2018-10-16T06:38:20.855Z,7.96
2018-10-16T06:41:25.913Z,8.02
2018-10-16T06:44:30.832Z,8.08
2018-10-16T06:47:35.842Z,8.10
2018-10-16T06:50:40.799Z,8.14
2018-10-16T06:53:46.162Z,8.20
2018-10-16T06:56:51.091Z,8.25
2018-10-16T06:59:56.027Z,8.29
2018-10-16T07:03:00.968Z,8.35
2018-10-16T07:06:05.897Z,8.45
2018-10-16T07:09:10.820Z,8.55
2018-10-16T07:12:17.365Z,8.65
2018-10-16T07:15:24.409Z,8.75
2018-10-16T07:18:31.201Z,8.84
2018-10-16T07:21:38.619Z,8.93
2018-10-16T07:24:45.217Z,9.02
2018-10-16T07:27:51.876Z,9.15
2018-10-16T07:30:58.737Z,9.25
2018-10-16T07:34:04.963Z,9.42
2018-10-16T07:37:11.680Z,9.67
2018-10-16T07:40:16.648Z,9.81
2018-10-16T07:43:23.294Z,9.99
2018-10-16T07:46:29.934Z,10.22
2018-10-16T07:49:34.934Z,10.42
2018-10-16T07:52:41.430Z,10.66
2018-10-16T07:55:48.154Z,10.93
2018-10-16T07:58:53.233Z,11.13
2018-10-16T08:01:58.219Z,11.34
2018-10-16T08:05:05.114Z,11.57
2018-10-16T08:08:13.730Z,11.82
2018-10-16T08:11:18.774Z,12.07
2018-10-16T08:14:25.193Z,12.35
2018-10-16T08:17:30.166Z,12.69
2018-10-16T08:20:36.713Z,13.05
2018-10-16T08:23:41.662Z,13.29
2018-10-16T08:26:46.652Z,13.60
2018-10-16T08:29:52.537Z,13.99
2018-10-16T08:32:57.506Z,14.72
2018-10-16T08:36:02.507Z,15.48
2018-10-16T08:39:12.789Z,15.88
2018-10-16T08:42:40.184Z,16.00
2018-10-16T08:45:56.806Z,16.11
2018-10-16T08:49:13.423Z,16.25
2018-10-16T08:52:24.139Z,16.46
2018-10-16T08:55:29.343Z,16.72
2018-10-16T08:58:34.338Z,16.98
2018-10-16T09:01:39.638Z,17.25
2018-10-16T09:04:44.632Z,17.55
2018-10-16T09:07:49.922Z,17.86
2018-10-16T09:10:55.458Z,18.24
2018-10-16T09:14:00.802Z,18.43
2018-10-16T09:17:05.955Z,18.62
2018-10-16T09:20:11.961Z,18.79
2018-10-16T09:23:16.972Z,19.01
2018-10-16T09:26:21.931Z,19.20
2018-10-16T09:29:30.510Z,19.29
2018-10-16T09:32:35.620Z,19.52
2018-10-16T09:35:40.585Z,19.83
2018-10-16T09:38:45.539Z,20.14
2018-10-16T09:41:50.490Z,20.36
2018-10-16T09:44:55.425Z,20.54
2018-10-16T09:48:00.386Z,20.87
2018-10-16T09:51:05.361Z,21.25
2018-10-16T09:54:10.316Z,21.47
2018-10-16T09:57:15.269Z,21.49
2018-10-16T10:00:26.156Z,21.60
2018-10-16T10:03:31.333Z,21.73
2018-10-16T10:06:36.328Z,21.86
2018-10-16T10:09:41.301Z,21.84
2018-10-16T10:12:48.408Z,21.87
2018-10-16T10:15:53.393Z,22.04
2018-10-16T10:19:00.604Z,22.18
2018-10-16T10:22:05.613Z,22.50
2018-10-16T10:25:10.738Z,22.59
2018-10-16T10:28:17.303Z,22.60
2018-10-16T10:31:22.371Z,22.62
2018-10-16T10:34:31.170Z,22.72
2018-10-16T10:37:36.166Z,22.79
2018-10-16T10:40:45.142Z,22.95
2018-10-16T10:43:50.217Z,23.10
2018-10-16T10:46:55.270Z,23.10
2018-10-16T10:50:05.143Z,23.22
2018-10-16T10:53:11.981Z,23.39
2018-10-16T10:56:20.473Z,23.49
2018-10-16T10:59:28.646Z,23.58
2018-10-16T11:02:38.638Z,23.59
2018-10-16T11:05:43.646Z,23.53
2018-10-16T11:08:59.239Z,23.62
2018-10-16T11:12:06.415Z,23.59
2018-10-16T11:15:12.660Z,23.76
2018-10-16T11:18:19.555Z,24.05
2018-10-16T11:21:26.646Z,24.03
2018-10-16T11:24:33.395Z,24.03
2018-10-16T11:27:38.453Z,24.08
2018-10-16T11:30:43.490Z,24.18
2018-10-16T11:33:48.555Z,24.24
2018-10-16T11:36:55.495Z,24.36
2018-10-16T11:40:03.011Z,24.48
2018-10-16T11:43:09.754Z,24.47
2018-10-16T11:46:14.731Z,24.46
2018-10-16T11:49:19.748Z,24.45
2018-10-16T11:52:26.750Z,24.56
2018-10-16T11:55:31.825Z,24.64
2018-10-16T11:58:38.365Z,24.55
2018-10-16T12:01:45.454Z,24.72
2018-10-16T12:04:50.702Z,24.78
2018-10-16T12:07:55.681Z,24.71
2018-10-16T12:25:24.759Z,25.08
2018-10-16T12:28:29.762Z,24.96
2018-10-16T12:31:34.772Z,25.02
2018-10-16T12:34:39.732Z,24.99
2018-10-16T12:37:44.718Z,25.23
2018-10-16T12:40:51.408Z,25.29
2018-10-16T12:43:56.385Z,25.37
2018-10-16T12:47:01.403Z,25.30
2018-10-16T12:50:06.493Z,25.32
2018-10-16T12:53:11.544Z,25.18
2018-10-16T12:56:16.694Z,25.13
2018-10-16T12:59:21.648Z,25.23
2018-10-16T13:02:26.700Z,25.40
2018-10-16T13:05:31.791Z,25.30
2018-10-16T13:08:36.821Z,25.29
2018-10-16T13:11:42.168Z,25.36
2018-10-16T13:14:47.285Z,25.49
2018-10-16T13:17:52.298Z,25.46
2018-10-16T13:20:57.948Z,25.28
2018-10-16T13:24:03.038Z,25.32
2018-10-16T13:27:09.625Z,25.34
2018-10-16T13:30:16.774Z,25.46
2018-10-16T13:33:21.794Z,25.59
2018-10-16T13:36:27.683Z,25.74
2018-10-16T13:39:32.724Z,25.86
2018-10-16T13:42:39.028Z,25.65
2018-10-16T13:45:46.078Z,25.55
2018-10-16T13:48:51.085Z,25.62
2018-10-16T13:51:57.972Z,25.48
2018-10-16T13:55:03.114Z,25.52
2018-10-16T13:58:08.255Z,25.58
2018-10-16T14:01:13.270Z,25.56
2018-10-16T14:04:18.402Z,25.52
2018-10-16T14:07:23.446Z,25.39
2018-10-16T14:10:28.474Z,25.40
2018-10-16T14:13:34.079Z,25.33
2018-10-16T14:16:39.139Z,25.25
2018-10-16T14:19:44.134Z,25.17
2018-10-16T14:22:49.189Z,25.14
2018-10-16T14:25:54.213Z,25.00
2018-10-16T14:28:59.230Z,24.91
2018-10-16T14:32:05.017Z,24.95
2018-10-16T14:35:10.741Z,24.80
2018-10-16T14:38:21.567Z,24.77
2018-10-16T14:41:26.598Z,24.48
2018-10-16T14:44:31.633Z,24.50
2018-10-16T14:47:36.672Z,24.46
2018-10-16T14:50:41.782Z,24.38
2018-10-16T14:53:46.791Z,24.38
2018-10-16T14:56:51.833Z,24.22
2018-10-16T14:59:57.046Z,24.14
2018-10-16T15:03:02.129Z,24.03
2018-10-16T15:06:07.181Z,24.01
2018-10-16T15:09:12.235Z,23.84
2018-10-16T15:12:17.365Z,23.73
2018-10-16T15:15:22.317Z,23.59
2018-10-16T15:18:29.081Z,23.50
2018-10-16T15:21:35.875Z,23.39
2018-10-16T15:24:45.431Z,23.22
2018-10-16T15:27:53.063Z,23.11
2018-10-16T15:30:58.657Z,22.89
2018-10-16T15:34:08.291Z,22.66
2018-10-16T15:37:13.252Z,22.53
2018-10-16T15:40:20.010Z,22.36
2018-10-16T15:43:26.707Z,22.17
2018-10-16T15:46:31.703Z,21.80
2018-10-16T15:49:36.728Z,21.62
2018-10-16T15:52:43.747Z,21.35
2018-10-16T15:55:48.733Z,21.04
2018-10-16T15:58:55.750Z,20.81
2018-10-16T16:02:00.771Z,20.51
2018-10-16T16:05:07.948Z,20.28
2018-10-16T16:15:16.175Z,19.46
2018-10-16T16:21:51.860Z,18.99
2018-10-16T16:25:00.578Z,18.80
2018-10-16T16:28:09.121Z,18.60
2018-10-16T16:31:17.979Z,18.42
2018-10-16T16:34:23.117Z,18.23
2018-10-16T16:37:28.172Z,18.06
2018-10-16T16:40:41.063Z,17.91
2018-10-16T16:43:47.903Z,17.69
2018-10-16T16:46:54.645Z,17.56
2018-10-16T16:50:01.817Z,17.38
2018-10-16T16:53:06.892Z,17.23
2018-10-16T16:56:15.442Z,17.10
2018-10-16T16:59:24.367Z,16.95
2018-10-16T17:02:31.573Z,16.81
2018-10-16T17:05:36.781Z,16.68
2018-10-16T17:08:43.857Z,16.54
2018-10-16T17:11:56.701Z,16.39
2018-10-16T17:15:05.868Z,16.25
2018-10-16T17:18:14.223Z,16.15
2018-10-16T17:21:20.924Z,15.97
2018-10-16T17:24:26.062Z,15.85
2018-10-16T17:27:34.820Z,15.73
2018-10-16T17:30:44.252Z,15.61
2018-10-16T17:33:50.974Z,15.47
2018-10-16T17:36:58.887Z,15.34
2018-10-16T17:40:09.995Z,15.22
2018-10-16T17:43:18.417Z,15.11
2018-10-16T17:46:24.740Z,15.01
2018-10-16T17:49:31.633Z,14.87
2018-10-16T17:52:43.066Z,14.78
2018-10-16T17:55:49.794Z,14.63
2018-10-16T17:58:58.369Z,14.60
2018-10-16T18:02:05.302Z,14.48
2018-10-16T18:05:10.826Z,14.43
2018-10-16T18:08:17.781Z,14.33
2018-10-16T18:11:26.055Z,14.25
2018-10-16T18:14:32.862Z,14.09
2018-10-16T18:17:40.590Z,13.95
2018-10-16T18:20:49.676Z,13.91
2018-10-16T18:23:58.807Z,13.83
2018-10-16T18:27:07.105Z,13.78
2018-10-16T18:30:12.930Z,13.75
2018-10-16T18:33:19.653Z,13.65
2018-10-16T18:36:26.891Z,13.59
2018-10-16T18:39:33.845Z,13.53
2018-10-16T18:42:41.143Z,13.34
2018-10-16T18:45:47.988Z,13.35
2018-10-16T18:48:54.907Z,13.32
2018-10-16T18:52:16.260Z,13.22
2018-10-16T18:55:23.213Z,13.15
2018-10-16T18:58:29.959Z,13.07
2018-10-16T19:01:38.091Z,12.99
2018-10-16T19:04:43.195Z,12.95
2018-10-16T19:07:51.532Z,12.90
2018-10-16T19:11:00.171Z,12.82
2018-10-16T19:14:05.428Z,12.79
2018-10-16T19:17:10.555Z,12.67
2018-10-16T19:20:18.292Z,12.69
2018-10-16T19:23:49.830Z,12.65
2018-10-16T19:26:54.943Z,12.51
2018-10-16T19:29:59.948Z,12.41
2018-10-16T19:33:06.790Z,12.40
2018-10-16T19:36:13.848Z,12.37
2018-10-16T19:39:22.686Z,12.31
2018-10-16T19:42:28.286Z,12.28
2018-10-16T19:45:34.880Z,12.28
2018-10-16T19:48:41.550Z,12.22
2018-10-16T19:51:48.400Z,12.17
2018-10-16T19:54:55.272Z,12.11
2018-10-16T19:58:03.358Z,11.98
2018-10-16T20:01:12.223Z,11.99
2018-10-16T20:04:19.329Z,11.96
2018-10-16T20:07:29.187Z,11.91
2018-10-16T20:10:39.458Z,11.86
2018-10-16T20:13:46.465Z,11.84
2018-10-16T20:16:51.567Z,11.79
2018-10-16T20:20:23.363Z,11.74
2018-10-16T20:23:30.432Z,11.70
2018-10-16T20:26:37.138Z,11.71
2018-10-16T20:29:46.219Z,11.64
2018-10-16T20:32:55.985Z,11.54
2018-10-16T20:36:00.972Z,11.57
2018-10-16T20:39:12.542Z,11.53
2018-10-16T20:42:17.602Z,11.46
2018-10-16T20:45:22.693Z,11.49
2018-10-16T20:48:31.881Z,11.47
2018-10-16T20:51:38.637Z,11.42
2018-10-16T20:54:45.629Z,11.44
2018-10-16T20:57:52.537Z,11.40
2018-10-16T21:00:59.521Z,11.35
2018-10-16T21:04:06.505Z,11.33
2018-10-16T21:07:13.344Z,11.29
2018-10-16T21:10:20.354Z,11.24
2018-10-16T21:15:14.329Z,11.05
2018-10-16T21:18:19.356Z,11.04
2018-10-16T21:21:26.459Z,11.04
2018-10-16T21:24:33.444Z,10.97
2018-10-16T21:27:44.918Z,11.02
2018-10-16T21:30:53.973Z,11.01
2018-10-16T21:33:59.679Z,10.99
2018-10-16T21:37:06.633Z,10.95
2018-10-16T21:40:11.638Z,10.91
2018-10-16T21:43:16.637Z,10.91
2018-10-16T21:46:23.271Z,10.86
2018-10-16T22:03:10.310Z,10.62
2018-10-16T22:06:15.310Z,10.59
2018-10-16T22:09:22.082Z,10.57
2018-10-16T22:12:29.305Z,10.52
2018-10-16T22:15:36.327Z,10.54
2018-10-16T22:18:43.408Z,10.50
2018-10-16T22:21:51.649Z,10.48
2018-10-16T22:24:58.245Z,10.48
2018-10-16T22:28:05.293Z,10.46
2018-10-16T22:31:15.328Z,10.42
2018-10-16T22:34:22.327Z,10.39
2018-10-16T22:37:30.209Z,10.36
2018-10-16T22:40:36.827Z,10.35
2018-10-16T22:43:43.501Z,10.32
2018-10-16T22:46:48.577Z,10.32
2018-10-16T22:49:53.581Z,10.30
2018-10-16T22:53:00.301Z,10.27
2018-10-16T22:56:05.481Z,10.22
2018-10-16T22:59:14.281Z,10.24
2018-10-16T23:02:21.500Z,10.21
2018-10-16T23:06:01.569Z,10.15
2018-10-16T23:09:07.337Z,10.08
2018-10-16T23:12:15.065Z,10.05
2018-10-16T23:15:44.466Z,10.02
2018-10-16T23:18:51.447Z,9.95
2018-10-16T23:22:32.643Z,9.84
2018-10-16T23:25:39.366Z,9.79
2018-10-16T23:28:46.125Z,9.77
2018-10-16T23:36:11.735Z,9.72
2018-10-16T23:39:16.755Z,9.73
2018-10-16T23:42:21.737Z,9.68
2018-10-16T23:45:48.050Z,9.69
2018-10-16T23:49:07.268Z,9.63
2018-10-16T23:52:13.837Z,9.63
2018-10-16T23:55:20.698Z,9.57
2018-10-16T23:58:34.613Z,9.60
